sensor_id;sensor_type;location;lat;lon;timestamp;P1;durP1;ratioP1;P2;durP2;ratioP2
14994;SDS011;7593;49.006;8.372;2023-04-16T00:01:00;18.63;;;16.77;;
14994;SDS011;7593;49.006;8.372;2023-04-16T00:03:27;22.23;;;19.33;;
14994;SDS011;7593;49.006;8.372;2023-04-16T00:05:54;17.83;;;16.02;;
14994;SDS011;7593;49.006;8.372;2023-04-16T00:08:21;18.02;;;16.23;;
14994;SDS011;7593;49.006;8.372;2023-04-16T00:10:49;18.77;;;16.88;;
14994;SDS011;7593;49.006;8.372;2023-04-16T00:13:16;19.10;;;17.17;;
14994;SDS011;7593;49.006;8.372;2023-04-16T00:15:43;18.58;;;16.67;;
14994;SDS011;7593;49.006;8.372;2023-04-16T00:18:11;19.23;;;17.33;;
14994;SDS011;7593;49.006;8.372;2023-04-16T00:20:37;21.38;;;19.08;;
14994;SDS011;7593;49.006;8.372;2023-04-16T00:23:04;19.38;;;17.40;;
14994;SDS011;7593;49.006;8.372;2023-04-16T00:25:31;19.83;;;17.73;;
14994;SDS011;7593;49.006;8.372;2023-04-16T00:27:58;20.35;;;18.25;;
14994;SDS011;7593;49.006;8.372;2023-04-16T00:30:24;20.75;;;18.52;;
14994;SDS011;7593;49.006;8.372;2023-04-16T00:32:51;20.63;;;18.42;;
14994;SDS011;7593;49.006;8.372;2023-04-16T00:35:19;20.23;;;17.95;;
14994;SDS011;7593;49.006;8.372;2023-04-16T00:37:46;19.42;;;17.42;;
14994;SDS011;7593;49.006;8.372;2023-04-16T00:40:13;18.95;;;16.92;;
14994;SDS011;7593;49.006;8.372;2023-04-16T00:42:40;20.15;;;17.98;;
14994;SDS011;7593;49.006;8.372;2023-04-16T00:45:07;20.80;;;18.52;;
14994;SDS011;7593;49.006;8.372;2023-04-16T00:47:35;19.83;;;17.73;;
14994;SDS011;7593;49.006;8.372;2023-04-16T00:50:02;20.42;;;18.33;;
14994;SDS011;7593;49.006;8.372;2023-04-16T00:52:31;20.08;;;17.98;;
14994;SDS011;7593;49.006;8.372;2023-04-16T00:54:58;20.50;;;18.30;;
14994;SDS011;7593;49.006;8.372;2023-04-16T00:57:25;22.27;;;19.88;;
14994;SDS011;7593;49.006;8.372;2023-04-16T00:59:52;21.63;;;18.48;;
14994;SDS011;7593;49.006;8.372;2023-04-16T01:02:19;21.33;;;18.55;;
14994;SDS011;7593;49.006;8.372;2023-04-16T01:04:46;20.63;;;18.50;;
14994;SDS011;7593;49.006;8.372;2023-04-16T01:07:13;27.13;;;23.08;;
14994;SDS011;7593;49.006;8.372;2023-04-16T01:09:41;23.33;;;20.17;;
14994;SDS011;7593;49.006;8.372;2023-04-16T01:12:08;22.05;;;19.65;;
14994;SDS011;7593;49.006;8.372;2023-04-16T01:14:35;21.50;;;19.23;;
14994;SDS011;7593;49.006;8.372;2023-04-16T01:17:02;21.95;;;19.60;;
14994;SDS011;7593;49.006;8.372;2023-04-16T01:19:29;20.23;;;18.13;;
14994;SDS011;7593;49.006;8.372;2023-04-16T01:21:57;23.48;;;19.27;;
14994;SDS011;7593;49.006;8.372;2023-04-16T01:24:24;20.48;;;17.85;;
14994;SDS011;7593;49.006;8.372;2023-04-16T01:26:51;17.60;;;15.80;;
14994;SDS011;7593;49.006;8.372;2023-04-16T01:29:17;18.88;;;16.88;;
14994;SDS011;7593;49.006;8.372;2023-04-16T01:31:44;19.27;;;17.33;;
14994;SDS011;7593;49.006;8.372;2023-04-16T01:34:11;20.70;;;17.92;;
14994;SDS011;7593;49.006;8.372;2023-04-16T01:36:38;19.48;;;17.48;;
14994;SDS011;7593;49.006;8.372;2023-04-16T01:39:06;19.70;;;17.45;;
14994;SDS011;7593;49.006;8.372;2023-04-16T01:41:35;20.38;;;18.27;;
14994;SDS011;7593;49.006;8.372;2023-04-16T01:44:02;19.60;;;17.60;;
14994;SDS011;7593;49.006;8.372;2023-04-16T01:46:30;19.65;;;17.58;;
14994;SDS011;7593;49.006;8.372;2023-04-16T01:48:58;20.98;;;18.38;;
14994;SDS011;7593;49.006;8.372;2023-04-16T01:51:26;20.33;;;18.23;;
14994;SDS011;7593;49.006;8.372;2023-04-16T01:53:53;20.98;;;18.80;;
14994;SDS011;7593;49.006;8.372;2023-04-16T01:56:21;21.40;;;18.40;;
14994;SDS011;7593;49.006;8.372;2023-04-16T01:58:48;22.05;;;19.20;;
14994;SDS011;7593;49.006;8.372;2023-04-16T02:01:14;20.90;;;18.70;;
14994;SDS011;7593;49.006;8.372;2023-04-16T02:03:41;21.98;;;19.45;;
14994;SDS011;7593;49.006;8.372;2023-04-16T02:06:08;21.60;;;19.30;;
14994;SDS011;7593;49.006;8.372;2023-04-16T02:08:35;21.15;;;18.92;;
14994;SDS011;7593;49.006;8.372;2023-04-16T02:11:02;21.92;;;18.90;;
14994;SDS011;7593;49.006;8.372;2023-04-16T02:13:30;21.40;;;19.20;;
14994;SDS011;7593;49.006;8.372;2023-04-16T02:15:56;23.48;;;19.10;;
14994;SDS011;7593;49.006;8.372;2023-04-16T02:18:23;21.55;;;18.92;;
14994;SDS011;7593;49.006;8.372;2023-04-16T02:20:50;22.30;;;19.90;;
14994;SDS011;7593;49.006;8.372;2023-04-16T02:23:17;22.85;;;20.08;;
14994;SDS011;7593;49.006;8.372;2023-04-16T02:25:44;22.77;;;20.30;;
14994;SDS011;7593;49.006;8.372;2023-04-16T02:28:12;21.45;;;18.50;;
14994;SDS011;7593;49.006;8.372;2023-04-16T02:30:42;21.10;;;18.83;;
14994;SDS011;7593;49.006;8.372;2023-04-16T02:33:10;20.58;;;18.38;;
14994;SDS011;7593;49.006;8.372;2023-04-16T02:35:37;21.23;;;18.40;;
14994;SDS011;7593;49.006;8.372;2023-04-16T02:38:05;19.88;;;17.88;;
14994;SDS011;7593;49.006;8.372;2023-04-16T02:40:32;20.17;;;18.08;;
14994;SDS011;7593;49.006;8.372;2023-04-16T02:42:59;20.23;;;18.17;;
14994;SDS011;7593;49.006;8.372;2023-04-16T02:45:26;22.05;;;18.40;;
14994;SDS011;7593;49.006;8.372;2023-04-16T02:47:54;20.85;;;18.73;;
14994;SDS011;7593;49.006;8.372;2023-04-16T02:50:21;21.10;;;18.55;;
14994;SDS011;7593;49.006;8.372;2023-04-16T02:52:47;19.88;;;17.83;;
14994;SDS011;7593;49.006;8.372;2023-04-16T02:55:15;21.95;;;18.98;;
14994;SDS011;7593;49.006;8.372;2023-04-16T02:57:42;21.27;;;19.02;;
14994;SDS011;7593;49.006;8.372;2023-04-16T03:00:09;22.02;;;19.27;;
14994;SDS011;7593;49.006;8.372;2023-04-16T03:02:36;24.10;;;19.98;;
14994;SDS011;7593;49.006;8.372;2023-04-16T03:05:05;20.95;;;18.75;;
14994;SDS011;7593;49.006;8.372;2023-04-16T03:07:32;21.70;;;18.83;;
14994;SDS011;7593;49.006;8.372;2023-04-16T03:09:59;19.83;;;17.83;;
14994;SDS011;7593;49.006;8.372;2023-04-16T03:12:26;21.25;;;19.05;;
14994;SDS011;7593;49.006;8.372;2023-04-16T03:14:52;19.42;;;17.42;;
14994;SDS011;7593;49.006;8.372;2023-04-16T03:17:19;20.92;;;18.75;;
14994;SDS011;7593;49.006;8.372;2023-04-16T03:19:46;20.73;;;18.52;;
14994;SDS011;7593;49.006;8.372;2023-04-16T03:22:16;19.52;;;17.52;;
14994;SDS011;7593;49.006;8.372;2023-04-16T03:24:42;19.13;;;17.23;;
14994;SDS011;7593;49.006;8.372;2023-04-16T03:27:09;21.48;;;19.15;;
14994;SDS011;7593;49.006;8.372;2023-04-16T03:29:36;21.50;;;18.60;;
14994;SDS011;7593;49.006;8.372;2023-04-16T03:32:03;20.77;;;18.63;;
14994;SDS011;7593;49.006;8.372;2023-04-16T03:34:30;20.45;;;18.25;;
14994;SDS011;7593;49.006;8.372;2023-04-16T03:36:57;20.75;;;18.52;;
14994;SDS011;7593;49.006;8.372;2023-04-16T03:39:25;20.33;;;18.30;;
14994;SDS011;7593;49.006;8.372;2023-04-16T03:41:52;20.60;;;18.50;;
14994;SDS011;7593;49.006;8.372;2023-04-16T03:44:19;21.50;;;19.00;;
14994;SDS011;7593;49.006;8.372;2023-04-16T03:46:45;20.92;;;18.73;;
14994;SDS011;7593;49.006;8.372;2023-04-16T03:49:12;22.23;;;19.10;;
14994;SDS011;7593;49.006;8.372;2023-04-16T03:51:39;21.58;;;19.17;;
14994;SDS011;7593;49.006;8.372;2023-04-16T03:54:06;20.08;;;17.98;;
14994;SDS011;7593;49.006;8.372;2023-04-16T03:56:34;20.83;;;18.23;;
14994;SDS011;7593;49.006;8.372;2023-04-16T03:59:00;21.35;;;19.15;;
14994;SDS011;7593;49.006;8.372;2023-04-16T04:01:27;19.80;;;17.80;;
14994;SDS011;7593;49.006;8.372;2023-04-16T04:03:54;20.20;;;18.08;;
14994;SDS011;7593;49.006;8.372;2023-04-16T04:06:21;19.55;;;17.45;;
14994;SDS011;7593;49.006;8.372;2023-04-16T04:08:47;19.67;;;17.58;;
14994;SDS011;7593;49.006;8.372;2023-04-16T04:11:14;20.10;;;17.98;;
14994;SDS011;7593;49.006;8.372;2023-04-16T04:13:42;20.95;;;17.88;;
14994;SDS011;7593;49.006;8.372;2023-04-16T04:16:09;19.85;;;17.75;;
14994;SDS011;7593;49.006;8.372;2023-04-16T04:18:36;20.48;;;18.30;;
14994;SDS011;7593;49.006;8.372;2023-04-16T04:21:04;19.08;;;17.08;;
14994;SDS011;7593;49.006;8.372;2023-04-16T04:23:31;18.85;;;16.92;;
14994;SDS011;7593;49.006;8.372;2023-04-16T04:25:57;22.63;;;17.77;;
14994;SDS011;7593;49.006;8.372;2023-04-16T04:28:27;19.35;;;17.15;;
14994;SDS011;7593;49.006;8.372;2023-04-16T04:30:55;18.48;;;16.30;;
14994;SDS011;7593;49.006;8.372;2023-04-16T04:33:22;17.05;;;15.25;;
14994;SDS011;7593;49.006;8.372;2023-04-16T04:35:49;15.85;;;14.20;;
14994;SDS011;7593;49.006;8.372;2023-04-16T04:38:16;15.85;;;14.20;;
14994;SDS011;7593;49.006;8.372;2023-04-16T04:40:44;13.90;;;12.50;;
14994;SDS011;7593;49.006;8.372;2023-04-16T04:43:10;13.25;;;11.85;;
14994;SDS011;7593;49.006;8.372;2023-04-16T04:45:37;12.70;;;11.45;;
14994;SDS011;7593;49.006;8.372;2023-04-16T04:48:05;13.27;;;11.55;;
14994;SDS011;7593;49.006;8.372;2023-04-16T04:50:32;13.40;;;12.00;;
14994;SDS011;7593;49.006;8.372;2023-04-16T04:52:59;12.25;;;10.93;;
14994;SDS011;7593;49.006;8.372;2023-04-16T04:55:26;12.63;;;11.32;;
14994;SDS011;7593;49.006;8.372;2023-04-16T04:57:53;13.27;;;11.98;;
14994;SDS011;7593;49.006;8.372;2023-04-16T05:00:19;13.00;;;10.95;;
14994;SDS011;7593;49.006;8.372;2023-04-16T05:02:46;11.60;;;10.40;;
14994;SDS011;7593;49.006;8.372;2023-04-16T05:05:14;14.07;;;11.32;;
14994;SDS011;7593;49.006;8.372;2023-04-16T05:07:41;13.43;;;11.18;;
14994;SDS011;7593;49.006;8.372;2023-04-16T05:10:09;11.60;;;10.40;;
14994;SDS011;7593;49.006;8.372;2023-04-16T05:12:36;12.45;;;10.27;;
14994;SDS011;7593;49.006;8.372;2023-04-16T05:15:04;11.30;;;10.10;;
14994;SDS011;7593;49.006;8.372;2023-04-16T05:17:31;11.80;;;10.38;;
14994;SDS011;7593;49.006;8.372;2023-04-16T05:19:59;11.25;;;10.05;;
14994;SDS011;7593;49.006;8.372;2023-04-16T05:22:27;11.40;;;10.20;;
14994;SDS011;7593;49.006;8.372;2023-04-16T05:24:53;11.15;;;10.02;;
14994;SDS011;7593;49.006;8.372;2023-04-16T05:27:20;12.38;;;11.07;;
14994;SDS011;7593;49.006;8.372;2023-04-16T05:29:47;12.15;;;10.55;;
14994;SDS011;7593;49.006;8.372;2023-04-16T05:32:14;13.00;;;10.50;;
14994;SDS011;7593;49.006;8.372;2023-04-16T05:34:41;12.07;;;10.60;;
14994;SDS011;7593;49.006;8.372;2023-04-16T05:37:07;13.25;;;10.25;;
14994;SDS011;7593;49.006;8.372;2023-04-16T05:39:36;11.90;;;10.52;;
14994;SDS011;7593;49.006;8.372;2023-04-16T05:42:02;12.60;;;10.85;;
14994;SDS011;7593;49.006;8.372;2023-04-16T05:44:29;12.48;;;11.18;;
14994;SDS011;7593;49.006;8.372;2023-04-16T05:46:56;12.68;;;10.65;;
14994;SDS011;7593;49.006;8.372;2023-04-16T05:49:23;11.32;;;10.02;;
14994;SDS011;7593;49.006;8.372;2023-04-16T05:51:50;12.70;;;11.23;;
14994;SDS011;7593;49.006;8.372;2023-04-16T05:54:17;13.25;;;10.98;;
14994;SDS011;7593;49.006;8.372;2023-04-16T05:56:45;13.77;;;10.98;;
14994;SDS011;7593;49.006;8.372;2023-04-16T05:59:11;13.52;;;11.07;;
14994;SDS011;7593;49.006;8.372;2023-04-16T06:01:38;13.00;;;10.02;;
14994;SDS011;7593;49.006;8.372;2023-04-16T06:04:05;13.57;;;10.57;;
14994;SDS011;7593;49.006;8.372;2023-04-16T06:06:32;12.77;;;10.43;;
14994;SDS011;7593;49.006;8.372;2023-04-16T06:08:58;12.18;;;10.40;;
14994;SDS011;7593;49.006;8.372;2023-04-16T06:11:25;11.50;;;9.90;;
14994;SDS011;7593;49.006;8.372;2023-04-16T06:13:53;11.07;;;9.98;;
14994;SDS011;7593;49.006;8.372;2023-04-16T06:16:20;11.50;;;10.25;;
14994;SDS011;7593;49.006;8.372;2023-04-16T06:18:47;11.13;;;9.35;;
14994;SDS011;7593;49.006;8.372;2023-04-16T06:21:14;11.20;;;9.70;;
14994;SDS011;7593;49.006;8.372;2023-04-16T06:23:41;13.23;;;10.35;;
14994;SDS011;7593;49.006;8.372;2023-04-16T06:26:08;10.35;;;9.23;;
14994;SDS011;7593;49.006;8.372;2023-04-16T06:28:34;9.82;;;8.80;;
14994;SDS011;7593;49.006;8.372;2023-04-16T06:31:02;9.60;;;8.60;;
14994;SDS011;7593;49.006;8.372;2023-04-16T06:33:30;9.60;;;8.38;;
14994;SDS011;7593;49.006;8.372;2023-04-16T06:35:57;11.05;;;9.68;;
14994;SDS011;7593;49.006;8.372;2023-04-16T06:38:23;10.88;;;9.57;;
14994;SDS011;7593;49.006;8.372;2023-04-16T06:40:50;10.98;;;9.32;;
14994;SDS011;7593;49.006;8.372;2023-04-16T06:43:17;10.82;;;9.30;;
14994;SDS011;7593;49.006;8.372;2023-04-16T06:45:44;11.10;;;9.90;;
14994;SDS011;7593;49.006;8.372;2023-04-16T06:48:12;10.60;;;9.50;;
14994;SDS011;7593;49.006;8.372;2023-04-16T06:50:42;10.70;;;9.40;;
14994;SDS011;7593;49.006;8.372;2023-04-16T06:53:08;11.55;;;10.02;;
14994;SDS011;7593;49.006;8.372;2023-04-16T06:55:35;13.05;;;10.15;;
14994;SDS011;7593;49.006;8.372;2023-04-16T06:58:02;12.02;;;10.32;;
14994;SDS011;7593;49.006;8.372;2023-04-16T07:00:28;13.68;;;9.68;;
14994;SDS011;7593;49.006;8.372;2023-04-16T07:02:55;12.13;;;9.73;;
14994;SDS011;7593;49.006;8.372;2023-04-16T07:05:25;10.77;;;9.25;;
14994;SDS011;7593;49.006;8.372;2023-04-16T07:07:52;10.82;;;9.00;;
14994;SDS011;7593;49.006;8.372;2023-04-16T07:10:20;10.90;;;9.73;;
14994;SDS011;7593;49.006;8.372;2023-04-16T07:12:47;11.20;;;9.60;;
14994;SDS011;7593;49.006;8.372;2023-04-16T07:15:14;10.50;;;9.43;;
14994;SDS011;7593;49.006;8.372;2023-04-16T07:17:41;11.07;;;9.93;;
14994;SDS011;7593;49.006;8.372;2023-04-16T07:20:08;10.10;;;9.10;;
14994;SDS011;7593;49.006;8.372;2023-04-16T07:22:38;13.88;;;9.45;;
14994;SDS011;7593;49.006;8.372;2023-04-16T07:25:05;10.32;;;9.18;;
14994;SDS011;7593;49.006;8.372;2023-04-16T07:27:33;10.05;;;8.63;;
14994;SDS011;7593;49.006;8.372;2023-04-16T07:30:00;10.40;;;9.20;;
14994;SDS011;7593;49.006;8.372;2023-04-16T07:32:26;9.95;;;8.95;;
14994;SDS011;7593;49.006;8.372;2023-04-16T07:34:53;11.88;;;10.68;;
14994;SDS011;7593;49.006;8.372;2023-04-16T07:37:20;9.80;;;8.80;;
14994;SDS011;7593;49.006;8.372;2023-04-16T07:39:48;9.07;;;8.15;;
14994;SDS011;7593;49.006;8.372;2023-04-16T07:42:15;9.88;;;8.77;;
14994;SDS011;7593;49.006;8.372;2023-04-16T07:44:42;10.63;;;9.07;;
14994;SDS011;7593;49.006;8.372;2023-04-16T07:47:09;9.55;;;8.57;;
14994;SDS011;7593;49.006;8.372;2023-04-16T07:49:36;10.20;;;9.10;;
14994;SDS011;7593;49.006;8.372;2023-04-16T07:52:03;10.57;;;8.43;;
14994;SDS011;7593;49.006;8.372;2023-04-16T07:54:30;8.90;;;7.88;;
14994;SDS011;7593;49.006;8.372;2023-04-16T07:56:58;9.95;;;8.18;;
14994;SDS011;7593;49.006;8.372;2023-04-16T07:59:25;8.98;;;7.85;;
14994;SDS011;7593;49.006;8.372;2023-04-16T08:01:52;8.90;;;8.00;;
14994;SDS011;7593;49.006;8.372;2023-04-16T08:04:19;10.15;;;7.97;;
14994;SDS011;7593;49.006;8.372;2023-04-16T08:06:48;9.38;;;7.47;;
14994;SDS011;7593;49.006;8.372;2023-04-16T08:09:15;9.05;;;7.35;;
14994;SDS011;7593;49.006;8.372;2023-04-16T08:11:42;8.48;;;7.57;;
14994;SDS011;7593;49.006;8.372;2023-04-16T08:14:10;8.73;;;7.80;;
14994;SDS011;7593;49.006;8.372;2023-04-16T08:16:37;8.20;;;7.00;;
14994;SDS011;7593;49.006;8.372;2023-04-16T08:19:04;8.55;;;7.05;;
14994;SDS011;7593;49.006;8.372;2023-04-16T08:21:31;7.90;;;7.05;;
14994;SDS011;7593;49.006;8.372;2023-04-16T08:23:59;8.77;;;7.20;;
14994;SDS011;7593;49.006;8.372;2023-04-16T08:26:26;9.05;;;7.50;;
14994;SDS011;7593;49.006;8.372;2023-04-16T08:28:52;9.77;;;7.22;;
14994;SDS011;7593;49.006;8.372;2023-04-16T08:31:21;8.20;;;7.32;;
14994;SDS011;7593;49.006;8.372;2023-04-16T08:33:47;7.32;;;6.63;;
14994;SDS011;7593;49.006;8.372;2023-04-16T08:36:14;7.95;;;7.15;;
14994;SDS011;7593;49.006;8.372;2023-04-16T08:38:44;8.93;;;7.47;;
14994;SDS011;7593;49.006;8.372;2023-04-16T08:41:11;7.72;;;6.93;;
14994;SDS011;7593;49.006;8.372;2023-04-16T08:43:41;7.53;;;6.72;;
14994;SDS011;7593;49.006;8.372;2023-04-16T08:46:10;8.68;;;6.85;;
14994;SDS011;7593;49.006;8.372;2023-04-16T08:48:39;9.32;;;7.40;;
14994;SDS011;7593;49.006;8.372;2023-04-16T08:51:07;7.35;;;6.45;;
14994;SDS011;7593;49.006;8.372;2023-04-16T08:53:41;7.10;;;6.40;;
14994;SDS011;7593;49.006;8.372;2023-04-16T08:56:19;9.85;;;7.47;;
14994;SDS011;7593;49.006;8.372;2023-04-16T08:58:48;10.52;;;6.90;;
14994;SDS011;7593;49.006;8.372;2023-04-16T09:01:19;10.60;;;6.97;;
14994;SDS011;7593;49.006;8.372;2023-04-16T09:03:48;7.90;;;6.75;;
14994;SDS011;7593;49.006;8.372;2023-04-16T09:06:16;9.65;;;7.13;;
14994;SDS011;7593;49.006;8.372;2023-04-16T09:08:42;8.95;;;7.68;;
14994;SDS011;7593;49.006;8.372;2023-04-16T09:11:11;9.13;;;7.55;;
14994;SDS011;7593;49.006;8.372;2023-04-16T09:13:50;7.85;;;7.05;;
14994;SDS011;7593;49.006;8.372;2023-04-16T09:16:17;9.20;;;6.85;;
14994;SDS011;7593;49.006;8.372;2023-04-16T09:18:49;7.82;;;7.03;;
14994;SDS011;7593;49.006;8.372;2023-04-16T09:21:23;7.85;;;6.93;;
14994;SDS011;7593;49.006;8.372;2023-04-16T09:23:52;7.70;;;6.88;;
14994;SDS011;7593;49.006;8.372;2023-04-16T09:26:20;8.43;;;7.22;;
14994;SDS011;7593;49.006;8.372;2023-04-16T09:28:51;9.77;;;7.57;;
14994;SDS011;7593;49.006;8.372;2023-04-16T09:31:18;8.38;;;7.55;;
14994;SDS011;7593;49.006;8.372;2023-04-16T09:33:59;9.23;;;8.18;;
14994;SDS011;7593;49.006;8.372;2023-04-16T09:36:31;9.68;;;7.28;;
14994;SDS011;7593;49.006;8.372;2023-04-16T09:39:01;12.82;;;7.20;;
14994;SDS011;7593;49.006;8.372;2023-04-16T09:41:32;9.05;;;7.45;;
14994;SDS011;7593;49.006;8.372;2023-04-16T09:44:07;8.02;;;7.22;;
14994;SDS011;7593;49.006;8.372;2023-04-16T09:46:35;8.32;;;7.53;;
14994;SDS011;7593;49.006;8.372;2023-04-16T09:49:08;9.15;;;7.70;;
14994;SDS011;7593;49.006;8.372;2023-04-16T09:51:40;8.70;;;7.65;;
14994;SDS011;7593;49.006;8.372;2023-04-16T09:54:09;8.90;;;7.80;;
14994;SDS011;7593;49.006;8.372;2023-04-16T09:56:38;10.48;;;7.75;;
14994;SDS011;7593;49.006;8.372;2023-04-16T09:59:15;8.40;;;7.57;;
14994;SDS011;7593;49.006;8.372;2023-04-16T10:01:44;12.13;;;8.27;;
14994;SDS011;7593;49.006;8.372;2023-04-16T10:04:18;10.77;;;8.65;;
14994;SDS011;7593;49.006;8.372;2023-04-16T10:07:00;8.90;;;8.00;;
14994;SDS011;7593;49.006;8.372;2023-04-16T10:09:36;8.77;;;7.88;;
14994;SDS011;7593;49.006;8.372;2023-04-16T10:12:08;10.00;;;7.70;;
14994;SDS011;7593;49.006;8.372;2023-04-16T10:14:37;9.48;;;7.93;;
14994;SDS011;7593;49.006;8.372;2023-04-16T10:17:04;8.35;;;7.28;;
14994;SDS011;7593;49.006;8.372;2023-04-16T10:19:34;9.73;;;8.20;;
14994;SDS011;7593;49.006;8.372;2023-04-16T10:22:03;9.13;;;7.75;;
14994;SDS011;7593;49.006;8.372;2023-04-16T10:24:33;9.50;;;7.95;;
14994;SDS011;7593;49.006;8.372;2023-04-16T10:27:04;10.55;;;8.52;;
14994;SDS011;7593;49.006;8.372;2023-04-16T10:29:31;9.60;;;8.05;;
14994;SDS011;7593;49.006;8.372;2023-04-16T10:32:04;9.70;;;8.38;;
14994;SDS011;7593;49.006;8.372;2023-04-16T10:34:34;10.20;;;8.48;;
14994;SDS011;7593;49.006;8.372;2023-04-16T10:37:01;10.13;;;8.18;;
14994;SDS011;7593;49.006;8.372;2023-04-16T10:39:29;10.30;;;8.10;;
14994;SDS011;7593;49.006;8.372;2023-04-16T10:42:07;8.80;;;7.70;;
14994;SDS011;7593;49.006;8.372;2023-04-16T10:44:36;8.77;;;7.88;;
14994;SDS011;7593;49.006;8.372;2023-04-16T10:47:12;9.90;;;8.18;;
14994;SDS011;7593;49.006;8.372;2023-04-16T10:49:45;11.63;;;8.18;;
14994;SDS011;7593;49.006;8.372;2023-04-16T10:52:16;10.07;;;7.68;;
14994;SDS011;7593;49.006;8.372;2023-04-16T10:54:53;10.30;;;7.70;;
14994;SDS011;7593;49.006;8.372;2023-04-16T10:57:22;8.00;;;7.20;;
14994;SDS011;7593;49.006;8.372;2023-04-16T10:59:53;7.10;;;6.40;;
14994;SDS011;7593;49.006;8.372;2023-04-16T11:02:20;7.03;;;6.32;;
14994;SDS011;7593;49.006;8.372;2023-04-16T11:04:55;7.10;;;6.22;;
14994;SDS011;7593;49.006;8.372;2023-04-16T11:07:31;8.45;;;6.90;;
14994;SDS011;7593;49.006;8.372;2023-04-16T11:09:58;6.97;;;6.28;;
14994;SDS011;7593;49.006;8.372;2023-04-16T11:12:30;7.85;;;7.05;;
14994;SDS011;7593;49.006;8.372;2023-04-16T11:15:00;7.45;;;6.75;;
14994;SDS011;7593;49.006;8.372;2023-04-16T11:17:28;8.25;;;7.13;;
14994;SDS011;7593;49.006;8.372;2023-04-16T11:19:59;9.20;;;7.20;;
14994;SDS011;7593;49.006;8.372;2023-04-16T11:22:26;9.10;;;7.60;;
14994;SDS011;7593;49.006;8.372;2023-04-16T11:24:53;9.07;;;7.47;;
14994;SDS011;7593;49.006;8.372;2023-04-16T11:27:21;9.32;;;7.53;;
14994;SDS011;7593;49.006;8.372;2023-04-16T11:29:55;10.18;;;8.07;;
14994;SDS011;7593;49.006;8.372;2023-04-16T11:32:23;9.63;;;8.00;;
14994;SDS011;7593;49.006;8.372;2023-04-16T11:34:50;8.52;;;7.63;;
14994;SDS011;7593;49.006;8.372;2023-04-16T11:37:20;8.35;;;6.40;;
14994;SDS011;7593;49.006;8.372;2023-04-16T11:39:57;7.05;;;6.35;;
14994;SDS011;7593;49.006;8.372;2023-04-16T11:42:23;7.55;;;6.75;;
14994;SDS011;7593;49.006;8.372;2023-04-16T11:44:52;7.85;;;7.00;;
14994;SDS011;7593;49.006;8.372;2023-04-16T11:47:21;8.20;;;6.80;;
14994;SDS011;7593;49.006;8.372;2023-04-16T11:49:48;7.18;;;6.47;;
14994;SDS011;7593;49.006;8.372;2023-04-16T11:52:25;7.95;;;6.50;;
14994;SDS011;7593;49.006;8.372;2023-04-16T11:54:52;11.10;;;7.20;;
14994;SDS011;7593;49.006;8.372;2023-04-16T11:57:23;8.10;;;7.28;;
14994;SDS011;7593;49.006;8.372;2023-04-16T11:59:50;8.02;;;7.22;;
14994;SDS011;7593;49.006;8.372;2023-04-16T12:02:25;9.57;;;8.20;;
14994;SDS011;7593;49.006;8.372;2023-04-16T12:04:59;8.98;;;7.28;;
14994;SDS011;7593;49.006;8.372;2023-04-16T12:07:30;8.63;;;7.10;;
14994;SDS011;7593;49.006;8.372;2023-04-16T12:10:06;9.80;;;7.30;;
14994;SDS011;7593;49.006;8.372;2023-04-16T12:12:33;7.75;;;6.95;;
14994;SDS011;7593;49.006;8.372;2023-04-16T12:15:00;8.05;;;7.25;;
14994;SDS011;7593;49.006;8.372;2023-04-16T12:17:28;8.45;;;7.55;;
14994;SDS011;7593;49.006;8.372;2023-04-16T12:19:56;11.30;;;8.98;;
14994;SDS011;7593;49.006;8.372;2023-04-16T12:22:27;9.55;;;8.02;;
14994;SDS011;7593;49.006;8.372;2023-04-16T12:24:59;11.65;;;7.43;;
14994;SDS011;7593;49.006;8.372;2023-04-16T12:27:43;8.57;;;7.72;;
14994;SDS011;7593;49.006;8.372;2023-04-16T12:30:12;9.40;;;8.13;;
14994;SDS011;7593;49.006;8.372;2023-04-16T12:32:39;9.65;;;8.50;;
14994;SDS011;7593;49.006;8.372;2023-04-16T12:35:08;9.73;;;8.68;;
14994;SDS011;7593;49.006;8.372;2023-04-16T12:37:37;9.48;;;8.48;;
14994;SDS011;7593;49.006;8.372;2023-04-16T12:40:04;9.63;;;8.50;;
14994;SDS011;7593;49.006;8.372;2023-04-16T12:42:32;11.00;;;9.40;;
14994;SDS011;7593;49.006;8.372;2023-04-16T12:45:01;9.90;;;8.35;;
14994;SDS011;7593;49.006;8.372;2023-04-16T12:47:28;11.48;;;8.93;;
14994;SDS011;7593;49.006;8.372;2023-04-16T12:49:55;9.77;;;8.43;;
14994;SDS011;7593;49.006;8.372;2023-04-16T12:52:22;8.45;;;7.57;;
14994;SDS011;7593;49.006;8.372;2023-04-16T12:54:50;10.32;;;7.90;;
14994;SDS011;7593;49.006;8.372;2023-04-16T12:57:17;9.40;;;8.40;;
14994;SDS011;7593;49.006;8.372;2023-04-16T12:59:44;10.07;;;8.82;;
14994;SDS011;7593;49.006;8.372;2023-04-16T13:02:11;11.10;;;8.52;;
14994;SDS011;7593;49.006;8.372;2023-04-16T13:04:38;10.18;;;8.25;;
14994;SDS011;7593;49.006;8.372;2023-04-16T13:07:04;9.02;;;7.25;;
14994;SDS011;7593;49.006;8.372;2023-04-16T13:09:32;9.18;;;8.00;;
14994;SDS011;7593;49.006;8.372;2023-04-16T13:12:00;9.25;;;8.30;;
14994;SDS011;7593;49.006;8.372;2023-04-16T13:14:26;10.40;;;8.13;;
14994;SDS011;7593;49.006;8.372;2023-04-16T13:16:53;8.98;;;7.90;;
14994;SDS011;7593;49.006;8.372;2023-04-16T13:19:20;11.75;;;8.23;;
14994;SDS011;7593;49.006;8.372;2023-04-16T13:21:47;9.40;;;8.10;;
14994;SDS011;7593;49.006;8.372;2023-04-16T13:24:14;10.07;;;8.30;;
14994;SDS011;7593;49.006;8.372;2023-04-16T13:26:40;10.90;;;8.73;;
14994;SDS011;7593;49.006;8.372;2023-04-16T13:29:08;11.63;;;9.70;;
14994;SDS011;7593;49.006;8.372;2023-04-16T13:31:35;11.52;;;9.18;;
14994;SDS011;7593;49.006;8.372;2023-04-16T13:34:03;10.77;;;9.23;;
14994;SDS011;7593;49.006;8.372;2023-04-16T13:36:30;10.80;;;9.43;;
14994;SDS011;7593;49.006;8.372;2023-04-16T13:38:57;14.18;;;10.32;;
14994;SDS011;7593;49.006;8.372;2023-04-16T13:41:24;11.23;;;9.48;;
14994;SDS011;7593;49.006;8.372;2023-04-16T13:43:51;10.82;;;9.02;;
14994;SDS011;7593;49.006;8.372;2023-04-16T13:46:20;9.60;;;8.25;;
14994;SDS011;7593;49.006;8.372;2023-04-16T13:48:46;9.25;;;8.18;;
14994;SDS011;7593;49.006;8.372;2023-04-16T13:51:13;9.25;;;8.30;;
14994;SDS011;7593;49.006;8.372;2023-04-16T13:53:40;9.63;;;8.60;;
14994;SDS011;7593;49.006;8.372;2023-04-16T13:56:07;11.85;;;9.43;;
14994;SDS011;7593;49.006;8.372;2023-04-16T13:58:35;10.52;;;9.02;;
14994;SDS011;7593;49.006;8.372;2023-04-16T14:01:01;9.18;;;7.80;;
14994;SDS011;7593;49.006;8.372;2023-04-16T14:03:30;9.50;;;7.35;;
14994;SDS011;7593;49.006;8.372;2023-04-16T14:05:59;8.38;;;7.57;;
14994;SDS011;7593;49.006;8.372;2023-04-16T14:08:26;10.13;;;8.45;;
14994;SDS011;7593;49.006;8.372;2023-04-16T14:10:54;9.00;;;8.05;;
14994;SDS011;7593;49.006;8.372;2023-04-16T14:13:22;8.18;;;7.38;;
14994;SDS011;7593;49.006;8.372;2023-04-16T14:15:48;8.95;;;7.95;;
14994;SDS011;7593;49.006;8.372;2023-04-16T14:18:16;11.60;;;7.55;;
14994;SDS011;7593;49.006;8.372;2023-04-16T14:20:46;8.60;;;7.32;;
14994;SDS011;7593;49.006;8.372;2023-04-16T14:23:12;9.27;;;7.88;;
14994;SDS011;7593;49.006;8.372;2023-04-16T14:25:39;9.43;;;7.68;;
14994;SDS011;7593;49.006;8.372;2023-04-16T14:28:06;8.57;;;7.22;;
14994;SDS011;7593;49.006;8.372;2023-04-16T14:30:33;8.93;;;7.35;;
14994;SDS011;7593;49.006;8.372;2023-04-16T14:33:00;8.23;;;7.43;;
14994;SDS011;7593;49.006;8.372;2023-04-16T14:35:27;8.80;;;7.63;;
14994;SDS011;7593;49.006;8.372;2023-04-16T14:37:55;10.65;;;8.80;;
14994;SDS011;7593;49.006;8.372;2023-04-16T14:40:22;10.63;;;8.10;;
14994;SDS011;7593;49.006;8.372;2023-04-16T14:42:49;9.65;;;8.10;;
14994;SDS011;7593;49.006;8.372;2023-04-16T14:45:15;11.02;;;8.45;;
14994;SDS011;7593;49.006;8.372;2023-04-16T14:47:42;12.55;;;8.98;;
14994;SDS011;7593;49.006;8.372;2023-04-16T14:50:11;11.32;;;9.18;;